createdAt,value
2023-02-16T00:04:50.353Z,99113.94
2023-02-16T00:09:58.051Z,99105.59
2023-02-16T00:15:02.658Z,99107.63
2023-02-16T00:20:15.201Z,99108.72
2023-02-16T00:25:21.088Z,99099.53
2023-02-16T00:30:25.621Z,99096.16
2023-02-16T00:35:29.995Z,99095.72
2023-02-16T00:40:36.071Z,99101.94
2023-02-16T00:45:43.258Z,99101.38
2023-02-16T00:50:48.766Z,99103.22
2023-02-16T00:55:56.672Z,99099.94
2023-02-16T01:01:09.395Z,99095.06
2023-02-16T01:06:31.403Z,99095.97
2023-02-16T01:11:37.315Z,99079.47
2023-02-16T01:16:43.839Z,99075.16
2023-02-16T01:21:48.398Z,99071.84
2023-02-16T01:26:54.350Z,99072.97
2023-02-16T01:31:58.518Z,99067.81
2023-02-16T01:37:03.982Z,99070.56
2023-02-16T01:42:28.998Z,99070.56
2023-02-16T01:47:43.217Z,99067.09
2023-02-16T01:52:56.711Z,99059.56
2023-02-16T01:58:07.941Z,99055.50
2023-02-16T02:03:36.405Z,99052.84
2023-02-16T02:08:48.051Z,99052.06
2023-02-16T02:14:01.651Z,99053.88
2023-02-16T02:19:06.477Z,99044.50
2023-02-16T02:24:54.428Z,99040.31
2023-02-16T02:30:17.881Z,99045.34
2023-02-16T02:35:39.906Z,99037.84
2023-02-16T02:41:00.623Z,99047.44
2023-02-16T02:46:17.381Z,99041.47
2023-02-16T02:51:29.663Z,99039.94
2023-02-16T02:57:10.149Z,99043.59
2023-02-16T03:02:18.680Z,99033.50
2023-02-16T03:07:46.126Z,99046.50
2023-02-16T03:12:50.958Z,99041.47
2023-02-16T03:18:16.576Z,99031.22
2023-02-16T03:23:38.281Z,99030.75
2023-02-16T03:29:03.425Z,99037.53
2023-02-16T03:34:09.349Z,99021.75
2023-02-16T03:39:14.381Z,99026.25
2023-02-16T03:44:19.309Z,99024.50
2023-02-16T03:49:25.300Z,99016.00
2023-02-16T03:54:29.967Z,99016.50
2023-02-16T03:59:34.574Z,99009.81
2023-02-16T04:04:40.624Z,99009.91
2023-02-16T04:09:44.997Z,99009.44
2023-02-16T04:14:49.413Z,99005.94
2023-02-16T04:19:55.749Z,99001.84
2023-02-16T04:25:00.287Z,98993.59
2023-02-16T04:30:07.478Z,98988.47
2023-02-16T04:35:15.188Z,98980.84
2023-02-16T04:40:21.694Z,98980.75
2023-02-16T04:45:26.145Z,98983.56
2023-02-16T04:50:32.473Z,98994.28
2023-02-16T04:55:37.189Z,98985.75
2023-02-16T05:00:42.629Z,98973.38
2023-02-16T05:05:48.540Z,98990.78
2023-02-16T05:11:06.972Z,98984.38
2023-02-16T05:16:12.882Z,98989.41
2023-02-16T05:21:37.338Z,98981.53
2023-02-16T05:26:41.865Z,98980.00
2023-02-16T05:31:46.212Z,98990.75
2023-02-16T05:36:52.310Z,98999.38
2023-02-16T05:41:57.028Z,99008.69
2023-02-16T05:47:01.691Z,99010.31
2023-02-16T05:52:07.606Z,99009.44
2023-02-16T05:57:12.161Z,99019.69
2023-02-16T06:02:17.484Z,99024.06
2023-02-16T06:07:23.248Z,99007.72
2023-02-16T06:12:27.651Z,99016.47
2023-02-16T06:17:32.164Z,99006.03
2023-02-16T06:22:39.653Z,99022.72
2023-02-16T06:27:43.955Z,99024.38
2023-02-16T06:32:48.221Z,99021.50
2023-02-16T06:37:54.124Z,99025.16
2023-02-16T06:42:58.723Z,99024.00
2023-02-16T06:48:03.331Z,99022.75
2023-02-16T06:53:09.477Z,99018.78
2023-02-16T06:58:14.488Z,99024.50
2023-02-16T07:03:19.283Z,99014.97
2023-02-16T07:08:25.046Z,99014.25
2023-02-16T07:13:29.207Z,99007.59
2023-02-16T07:18:34.533Z,99014.56
2023-02-16T07:23:40.292Z,99009.41
2023-02-16T07:28:44.810Z,99005.91
2023-02-16T07:33:49.266Z,99009.91
2023-02-16T07:38:55.103Z,99014.72
2023-02-16T07:43:59.630Z,99010.06
2023-02-16T07:49:06.315Z,99014.56
2023-02-16T07:54:12.224Z,99011.84
2023-02-16T07:59:17.607Z,99020.28
2023-02-16T08:04:22.141Z,99022.56
2023-02-16T08:09:28.089Z,99023.41
2023-02-16T08:14:32.486Z,99019.28
2023-02-16T08:19:37.177Z,99039.59
2023-02-16T08:24:43.523Z,99024.69
2023-02-16T08:29:47.957Z,99024.13
2023-02-16T08:34:52.507Z,99015.00
2023-02-16T08:40:00.927Z,99017.84
2023-02-16T08:45:06.612Z,99025.00
2023-02-16T08:50:12.247Z,99026.41
2023-02-16T08:55:18.427Z,99021.88
2023-02-16T09:00:35.494Z,99025.72
2023-02-16T09:05:40.594Z,99020.47
2023-02-16T09:10:46.442Z,99028.13
2023-02-16T09:15:50.734Z,99018.06
2023-02-16T09:20:55.308Z,99026.16
2023-02-16T09:26:03.343Z,99031.81
2023-02-16T09:31:12.508Z,99023.34
2023-02-16T09:36:17.369Z,99017.94
2023-02-16T09:41:29.237Z,99017.69
2023-02-16T09:46:35.446Z,99018.72
2023-02-16T09:51:41.930Z,99023.38
2023-02-16T09:56:59.850Z,99018.41
2023-02-16T10:02:30.904Z,99000.69
2023-02-16T10:07:51.892Z,99000.38
2023-02-16T10:13:05.417Z,98983.84
2023-02-16T10:18:22.060Z,98991.19
2023-02-16T10:23:41.835Z,98976.53
2023-02-16T10:28:50.275Z,98970.94
2023-02-16T10:34:21.365Z,98973.13
2023-02-16T10:39:36.860Z,98973.13
2023-02-16T10:44:51.123Z,98967.44
2023-02-16T10:49:57.095Z,98969.03
2023-02-16T10:55:02.480Z,98952.72
2023-02-16T11:00:14.622Z,98955.31
2023-02-16T11:05:38.084Z,98958.19
2023-02-16T11:10:49.009Z,98944.97
2023-02-16T11:15:58.030Z,98945.91
2023-02-16T11:21:04.228Z,98952.84
2023-02-16T11:26:24.767Z,98955.06
2023-02-16T11:31:35.144Z,98938.34
2023-02-16T11:36:44.059Z,98936.31
2023-02-16T11:41:53.251Z,98927.69
2023-02-16T11:47:01.729Z,98944.47
2023-02-16T11:52:26.409Z,98938.78
2023-02-16T11:57:33.625Z,98934.44
2023-02-16T12:03:08.940Z,98940.31
2023-02-16T12:08:37.876Z,98934.91
2023-02-16T12:13:52.656Z,98924.25
2023-02-16T12:19:19.133Z,98928.28
2023-02-16T12:24:41.120Z,98919.03
2023-02-16T12:29:55.603Z,98911.16
2023-02-16T12:35:24.397Z,98902.09
2023-02-16T12:40:44.130Z,98905.84
2023-02-16T12:45:49.676Z,98906.69
2023-02-16T12:50:58.231Z,98885.94
2023-02-16T12:56:10.680Z,98874.44
2023-02-16T13:01:21.769Z,98882.78
2023-02-16T13:06:33.931Z,98875.06
2023-02-16T13:11:45.244Z,98864.88
2023-02-16T13:16:57.011Z,98857.47
2023-02-16T13:22:40.358Z,98857.75
2023-02-16T13:27:58.499Z,98859.72
2023-02-16T13:33:30.595Z,98859.31
2023-02-16T13:39:21.928Z,98850.09
2023-02-16T13:44:35.488Z,98848.25
2023-02-16T13:49:43.580Z,98848.19
2023-02-16T13:54:50.906Z,98858.00
2023-02-16T14:00:05.717Z,98844.16
2023-02-16T14:05:28.773Z,98839.09
2023-02-16T14:11:11.991Z,98835.66
2023-02-16T14:16:35.133Z,98839.19
2023-02-16T14:21:42.917Z,98842.09
2023-02-16T14:26:59.487Z,98843.03
2023-02-16T14:32:21.428Z,98858.06
2023-02-16T14:37:37.843Z,98852.19
2023-02-16T14:42:53.883Z,98845.84
2023-02-16T14:48:15.185Z,98849.22
2023-02-16T14:54:08.657Z,98855.94
2023-02-16T14:59:29.767Z,98854.69
2023-02-16T15:04:38.429Z,98857.88
2023-02-16T15:09:44.191Z,98840.56
2023-02-16T15:14:52.532Z,98840.69
2023-02-16T15:20:04.166Z,98832.31
2023-02-16T15:25:23.874Z,98838.41
2023-02-16T15:30:31.849Z,98830.66
2023-02-16T15:35:39.526Z,98824.03
2023-02-16T15:40:45.574Z,98818.03
2023-02-16T15:45:53.881Z,98822.28
2023-02-16T15:51:06.980Z,98816.13
2023-02-16T15:56:38.758Z,98803.44
2023-02-16T16:01:44.540Z,98798.50
2023-02-16T16:06:51.377Z,98807.22
2023-02-16T16:12:00.955Z,98807.69
2023-02-16T16:17:09.000Z,98805.72
2023-02-16T16:22:34.309Z,98799.88
2023-02-16T16:27:48.427Z,98804.47
2023-02-16T16:33:04.401Z,98805.22
2023-02-16T16:38:23.600Z,98808.84
2023-02-16T16:43:31.428Z,98810.94
2023-02-16T16:48:37.720Z,98816.97
2023-02-16T16:53:53.876Z,98820.44
2023-02-16T16:59:00.260Z,98810.84
2023-02-16T17:04:06.433Z,98801.72
2023-02-16T17:09:10.886Z,98812.69
2023-02-16T17:14:19.594Z,98799.69
2023-02-16T17:19:29.045Z,98807.81
2023-02-16T17:24:33.634Z,98810.31
2023-02-16T17:29:38.162Z,98809.88
2023-02-16T17:34:44.638Z,98810.38
2023-02-16T17:39:49.388Z,98811.66
2023-02-16T17:44:53.759Z,98816.22
2023-02-16T17:49:59.957Z,98808.88
2023-02-16T17:55:04.840Z,98815.31
2023-02-16T18:00:18.469Z,98819.31
2023-02-16T18:10:49.718Z,98820.81
2023-02-16T18:15:54.969Z,98823.28
2023-02-16T18:20:59.639Z,98819.38
2023-02-16T18:26:06.481Z,98827.66
2023-02-16T18:31:11.896Z,98828.47
2023-02-16T18:36:16.586Z,98836.66
2023-02-16T18:41:22.353Z,98836.47
2023-02-16T18:46:26.697Z,98830.03
2023-02-16T18:51:32.137Z,98832.97
2023-02-16T18:56:39.120Z,98828.94
2023-02-16T19:01:43.681Z,98829.16
2023-02-16T19:06:48.361Z,98831.38
2023-02-16T19:11:54.051Z,98827.81
2023-02-16T19:16:58.817Z,98824.63
2023-02-16T19:22:03.243Z,98830.81
2023-02-16T19:27:09.097Z,98830.59
2023-02-16T19:32:13.703Z,98832.78
2023-02-16T19:37:18.093Z,98825.28
2023-02-16T19:42:24.043Z,98812.31
2023-02-16T19:47:28.610Z,98803.34
2023-02-16T19:52:32.809Z,98813.44
2023-02-16T19:57:38.324Z,98809.22
2023-02-16T20:02:42.882Z,98817.19
2023-02-16T20:07:47.081Z,98829.22
2023-02-16T20:12:52.991Z,98831.81
2023-02-16T20:17:57.336Z,98827.81
2023-02-16T20:23:01.755Z,98819.97
2023-02-16T20:28:07.640Z,98831.19
2023-02-16T20:33:12.082Z,98828.22
2023-02-16T20:38:17.036Z,98823.63
2023-02-16T20:43:23.052Z,98833.31
2023-02-16T20:48:27.745Z,98832.69
2023-02-16T20:53:32.611Z,98831.91
2023-02-16T20:58:40.229Z,98826.13
2023-02-16T21:03:44.965Z,98828.41
2023-02-16T21:08:49.274Z,98825.56
2023-02-16T21:13:55.726Z,98813.81
2023-02-16T21:19:00.585Z,98815.66
2023-02-16T21:24:05.428Z,98808.06
2023-02-16T21:29:11.398Z,98811.56
2023-02-16T21:34:15.941Z,98803.84
2023-02-16T21:39:40.394Z,98802.50
2023-02-16T21:44:50.013Z,98797.69
2023-02-16T21:49:54.591Z,98795.94
2023-02-16T21:55:16.666Z,98799.25
2023-02-16T22:00:22.687Z,98804.38
2023-02-16T22:05:27.030Z,98804.88
2023-02-16T22:10:31.853Z,98806.00
2023-02-16T22:15:38.217Z,98805.16
2023-02-16T22:20:42.648Z,98801.88
2023-02-16T22:25:47.447Z,98804.47
2023-02-16T22:30:53.086Z,98807.72
2023-02-16T22:35:57.452Z,98797.38
2023-02-16T22:41:07.011Z,98815.66
2023-02-16T22:46:17.598Z,98809.63
2023-02-16T22:51:23.132Z,98807.88
2023-02-16T22:56:28.298Z,98803.34
2023-02-16T23:01:34.664Z,98804.97
2023-02-16T23:06:39.184Z,98799.03
2023-02-16T23:11:43.705Z,98795.31
2023-02-16T23:16:52.194Z,98794.16
2023-02-16T23:21:57.742Z,98787.06
2023-02-16T23:27:02.311Z,98779.88
2023-02-16T23:32:08.105Z,98782.53
2023-02-16T23:37:12.705Z,98785.84
2023-02-16T23:42:17.127Z,98775.66
2023-02-16T23:47:23.065Z,98781.53
2023-02-16T23:52:27.487Z,98769.84
2023-02-16T23:57:31.932Z,98777.06
